sensor_id;sensor_type;location;lat;lon;timestamp;temperature;humidity
3866;DHT22;1948;53.250;10.412;2022-10-16T00:01:43;15.10;99.90
3866;DHT22;1948;53.250;10.412;2022-10-16T00:04:13;15.10;99.90
3866;DHT22;1948;53.250;10.412;2022-10-16T00:06:40;15.10;99.90
3866;DHT22;1948;53.250;10.412;2022-10-16T00:09:09;15.00;99.90
3866;DHT22;1948;53.250;10.412;2022-10-16T00:11:39;15.00;99.90
3866;DHT22;1948;53.250;10.412;2022-10-16T00:14:10;15.00;99.90
3866;DHT22;1948;53.250;10.412;2022-10-16T00:16:39;14.90;99.90
3866;DHT22;1948;53.250;10.412;2022-10-16T00:19:06;14.90;99.90
3866;DHT22;1948;53.250;10.412;2022-10-16T00:21:33;14.80;99.90
3866;DHT22;1948;53.250;10.412;2022-10-16T00:24:03;14.80;99.90
3866;DHT22;1948;53.250;10.412;2022-10-16T00:26:33;14.80;99.90
3866;DHT22;1948;53.250;10.412;2022-10-16T00:29:04;14.70;99.90
3866;DHT22;1948;53.250;10.412;2022-10-16T00:31:34;14.70;99.90
3866;DHT22;1948;53.250;10.412;2022-10-16T00:34:01;14.70;99.90
3866;DHT22;1948;53.250;10.412;2022-10-16T00:36:31;14.70;99.90
3866;DHT22;1948;53.250;10.412;2022-10-16T00:39:00;14.70;99.90
3866;DHT22;1948;53.250;10.412;2022-10-16T00:41:29;14.70;99.90
3866;DHT22;1948;53.250;10.412;2022-10-16T00:43:59;14.70;99.90
3866;DHT22;1948;53.250;10.412;2022-10-16T00:49:17;14.70;99.90
3866;DHT22;1948;53.250;10.412;2022-10-16T00:51:49;14.60;99.90
3866;DHT22;1948;53.250;10.412;2022-10-16T00:54:29;14.60;99.90
3866;DHT22;1948;53.250;10.412;2022-10-16T00:57:00;14.50;99.90
3866;DHT22;1948;53.250;10.412;2022-10-16T00:59:35;14.40;99.90
3866;DHT22;1948;53.250;10.412;2022-10-16T01:02:09;14.40;99.90
3866;DHT22;1948;53.250;10.412;2022-10-16T01:04:43;14.50;99.90
3866;DHT22;1948;53.250;10.412;2022-10-16T01:10:30;14.40;99.90
3866;DHT22;1948;53.250;10.412;2022-10-16T01:13:07;14.40;99.90
3866;DHT22;1948;53.250;10.412;2022-10-16T01:15:59;14.30;99.90
3866;DHT22;1948;53.250;10.412;2022-10-16T01:18:56;14.30;99.90
3866;DHT22;1948;53.250;10.412;2022-10-16T01:21:35;14.20;99.90
3866;DHT22;1948;53.250;10.412;2022-10-16T01:24:17;14.20;99.90
3866;DHT22;1948;53.250;10.412;2022-10-16T01:27:12;14.20;99.90
3866;DHT22;1948;53.250;10.412;2022-10-16T01:32:38;14.10;99.90
3866;DHT22;1948;53.250;10.412;2022-10-16T01:35:32;14.10;99.90
3866;DHT22;1948;53.250;10.412;2022-10-16T01:38:21;14.10;99.90
3866;DHT22;1948;53.250;10.412;2022-10-16T01:41:00;14.00;99.90
3866;DHT22;1948;53.250;10.412;2022-10-16T01:46:26;14.10;99.90
3866;DHT22;1948;53.250;10.412;2022-10-16T01:48:53;14.00;99.90
3866;DHT22;1948;53.250;10.412;2022-10-16T01:51:23;14.00;99.90
3866;DHT22;1948;53.250;10.412;2022-10-16T01:53:53;14.00;99.90
3866;DHT22;1948;53.250;10.412;2022-10-16T01:56:26;14.10;99.90
3866;DHT22;1948;53.250;10.412;2022-10-16T01:59:00;14.00;99.90
3866;DHT22;1948;53.250;10.412;2022-10-16T02:01:33;13.80;99.90
3866;DHT22;1948;53.250;10.412;2022-10-16T02:04:09;13.80;99.90
3866;DHT22;1948;53.250;10.412;2022-10-16T02:06:41;13.70;99.90
3866;DHT22;1948;53.250;10.412;2022-10-16T02:09:10;13.70;99.90
3866;DHT22;1948;53.250;10.412;2022-10-16T02:11:40;13.70;99.90
3866;DHT22;1948;53.250;10.412;2022-10-16T02:14:07;13.70;99.90
3866;DHT22;1948;53.250;10.412;2022-10-16T02:16:40;13.70;99.90
3866;DHT22;1948;53.250;10.412;2022-10-16T02:19:12;13.70;99.90
3866;DHT22;1948;53.250;10.412;2022-10-16T02:21:57;13.70;99.90
3866;DHT22;1948;53.250;10.412;2022-10-16T02:24:38;13.70;99.90
3866;DHT22;1948;53.250;10.412;2022-10-16T02:30:16;13.60;99.90
3866;DHT22;1948;53.250;10.412;2022-10-16T02:32:45;13.60;99.90
3866;DHT22;1948;53.250;10.412;2022-10-16T02:35:17;13.60;99.90
3866;DHT22;1948;53.250;10.412;2022-10-16T02:37:47;13.60;99.90
3866;DHT22;1948;53.250;10.412;2022-10-16T02:40:18;13.60;99.90
3866;DHT22;1948;53.250;10.412;2022-10-16T02:42:52;13.60;99.90
3866;DHT22;1948;53.250;10.412;2022-10-16T02:45:23;13.60;99.90
3866;DHT22;1948;53.250;10.412;2022-10-16T02:47:53;13.60;99.90
3866;DHT22;1948;53.250;10.412;2022-10-16T02:50:20;13.60;99.90
3866;DHT22;1948;53.250;10.412;2022-10-16T02:52:47;13.60;99.90
3866;DHT22;1948;53.250;10.412;2022-10-16T02:55:17;13.60;99.90
3866;DHT22;1948;53.250;10.412;2022-10-16T02:57:44;13.60;99.90
3866;DHT22;1948;53.250;10.412;2022-10-16T03:00:13;13.60;99.90
3866;DHT22;1948;53.250;10.412;2022-10-16T03:02:44;13.50;99.90
3866;DHT22;1948;53.250;10.412;2022-10-16T03:05:11;13.60;99.90
3866;DHT22;1948;53.250;10.412;2022-10-16T03:07:40;13.50;99.90
3866;DHT22;1948;53.250;10.412;2022-10-16T03:10:07;13.50;99.90
3866;DHT22;1948;53.250;10.412;2022-10-16T03:12:38;13.50;99.90
3866;DHT22;1948;53.250;10.412;2022-10-16T03:15:07;13.50;99.90
3866;DHT22;1948;53.250;10.412;2022-10-16T03:17:34;13.40;99.90
3866;DHT22;1948;53.250;10.412;2022-10-16T03:20:04;13.40;99.90
3866;DHT22;1948;53.250;10.412;2022-10-16T03:22:31;13.40;99.90
3866;DHT22;1948;53.250;10.412;2022-10-16T03:25:02;13.40;99.90
3866;DHT22;1948;53.250;10.412;2022-10-16T03:27:29;13.40;99.90
3866;DHT22;1948;53.250;10.412;2022-10-16T03:29:58;13.40;99.90
3866;DHT22;1948;53.250;10.412;2022-10-16T03:32:27;13.40;99.90
3866;DHT22;1948;53.250;10.412;2022-10-16T03:34:56;13.40;99.90
3866;DHT22;1948;53.250;10.412;2022-10-16T03:37:24;13.40;99.90
3866;DHT22;1948;53.250;10.412;2022-10-16T03:39:51;13.40;99.90
3866;DHT22;1948;53.250;10.412;2022-10-16T03:42:21;13.40;99.90
3866;DHT22;1948;53.250;10.412;2022-10-16T03:44:55;13.40;99.90
3866;DHT22;1948;53.250;10.412;2022-10-16T03:47:22;13.40;99.90
3866;DHT22;1948;53.250;10.412;2022-10-16T03:49:50;13.30;99.90
3866;DHT22;1948;53.250;10.412;2022-10-16T03:52:17;13.30;99.90
3866;DHT22;1948;53.250;10.412;2022-10-16T03:54:49;13.30;99.90
3866;DHT22;1948;53.250;10.412;2022-10-16T03:57:20;13.40;99.90
3866;DHT22;1948;53.250;10.412;2022-10-16T03:59:47;13.40;99.90
3866;DHT22;1948;53.250;10.412;2022-10-16T04:02:14;13.30;99.90
3866;DHT22;1948;53.250;10.412;2022-10-16T04:04:43;13.40;99.90
3866;DHT22;1948;53.250;10.412;2022-10-16T04:07:12;13.40;99.90
3866;DHT22;1948;53.250;10.412;2022-10-16T04:09:39;13.40;99.90
3866;DHT22;1948;53.250;10.412;2022-10-16T04:12:06;13.30;99.90
3866;DHT22;1948;53.250;10.412;2022-10-16T04:14:35;13.40;99.90
3866;DHT22;1948;53.250;10.412;2022-10-16T04:17:02;13.40;99.90
3866;DHT22;1948;53.250;10.412;2022-10-16T04:19:32;13.30;99.90
3866;DHT22;1948;53.250;10.412;2022-10-16T04:21:58;13.30;99.90
3866;DHT22;1948;53.250;10.412;2022-10-16T04:24:25;13.30;99.90
3866;DHT22;1948;53.250;10.412;2022-10-16T04:26:54;13.20;99.90
3866;DHT22;1948;53.250;10.412;2022-10-16T04:29:21;13.20;99.90
3866;DHT22;1948;53.250;10.412;2022-10-16T04:31:51;13.20;99.90
3866;DHT22;1948;53.250;10.412;2022-10-16T04:34:20;13.20;99.90
3866;DHT22;1948;53.250;10.412;2022-10-16T04:36:47;13.10;99.90
3866;DHT22;1948;53.250;10.412;2022-10-16T04:39:18;13.10;99.90
3866;DHT22;1948;53.250;10.412;2022-10-16T04:41:45;13.10;99.90
3866;DHT22;1948;53.250;10.412;2022-10-16T04:44:12;13.10;99.90
3866;DHT22;1948;53.250;10.412;2022-10-16T04:46:39;13.20;99.90
3866;DHT22;1948;53.250;10.412;2022-10-16T04:49:06;13.10;99.90
3866;DHT22;1948;53.250;10.412;2022-10-16T04:51:35;13.10;99.90
3866;DHT22;1948;53.250;10.412;2022-10-16T04:54:05;13.10;99.90
3866;DHT22;1948;53.250;10.412;2022-10-16T04:56:31;13.10;99.90
3866;DHT22;1948;53.250;10.412;2022-10-16T04:58:58;13.10;99.90
3866;DHT22;1948;53.250;10.412;2022-10-16T05:01:25;13.10;99.90
3866;DHT22;1948;53.250;10.412;2022-10-16T05:03:55;13.10;99.90
3866;DHT22;1948;53.250;10.412;2022-10-16T05:06:25;13.10;99.90
3866;DHT22;1948;53.250;10.412;2022-10-16T05:08:54;13.10;99.90
3866;DHT22;1948;53.250;10.412;2022-10-16T05:11:21;13.20;99.90
3866;DHT22;1948;53.250;10.412;2022-10-16T05:13:50;13.20;99.90
3866;DHT22;1948;53.250;10.412;2022-10-16T05:16:21;13.20;99.90
3866;DHT22;1948;53.250;10.412;2022-10-16T05:18:48;13.20;99.90
3866;DHT22;1948;53.250;10.412;2022-10-16T05:21:19;13.20;99.90
3866;DHT22;1948;53.250;10.412;2022-10-16T05:23:46;13.30;99.90
3866;DHT22;1948;53.250;10.412;2022-10-16T05:26:13;13.20;99.90
3866;DHT22;1948;53.250;10.412;2022-10-16T05:28:42;13.20;99.90
3866;DHT22;1948;53.250;10.412;2022-10-16T05:31:10;13.20;99.90
3866;DHT22;1948;53.250;10.412;2022-10-16T05:33:40;13.20;99.90
3866;DHT22;1948;53.250;10.412;2022-10-16T05:36:09;13.30;99.90
3866;DHT22;1948;53.250;10.412;2022-10-16T05:38:37;13.30;99.90
3866;DHT22;1948;53.250;10.412;2022-10-16T05:41:05;13.20;99.90
3866;DHT22;1948;53.250;10.412;2022-10-16T05:43:32;13.30;99.90
3866;DHT22;1948;53.250;10.412;2022-10-16T05:46:05;13.20;99.90
3866;DHT22;1948;53.250;10.412;2022-10-16T05:48:33;13.30;99.90
3866;DHT22;1948;53.250;10.412;2022-10-16T05:54:01;13.20;99.90
3866;DHT22;1948;53.250;10.412;2022-10-16T05:56:30;13.20;99.90
3866;DHT22;1948;53.250;10.412;2022-10-16T05:59:00;13.20;99.90
3866;DHT22;1948;53.250;10.412;2022-10-16T06:01:27;13.20;99.90
3866;DHT22;1948;53.250;10.412;2022-10-16T06:03:54;13.20;99.90
3866;DHT22;1948;53.250;10.412;2022-10-16T06:06:24;13.20;99.90
3866;DHT22;1948;53.250;10.412;2022-10-16T06:08:56;13.30;99.90
3866;DHT22;1948;53.250;10.412;2022-10-16T06:11:29;13.30;99.90
3866;DHT22;1948;53.250;10.412;2022-10-16T06:14:00;13.30;99.90
3866;DHT22;1948;53.250;10.412;2022-10-16T06:16:35;13.30;99.90
3866;DHT22;1948;53.250;10.412;2022-10-16T06:19:05;13.30;99.90
3866;DHT22;1948;53.250;10.412;2022-10-16T06:21:35;13.30;99.90
3866;DHT22;1948;53.250;10.412;2022-10-16T06:24:04;13.30;99.90
3866;DHT22;1948;53.250;10.412;2022-10-16T06:26:33;13.40;99.90
3866;DHT22;1948;53.250;10.412;2022-10-16T06:29:03;13.40;99.90
3866;DHT22;1948;53.250;10.412;2022-10-16T06:31:31;13.40;99.90
3866;DHT22;1948;53.250;10.412;2022-10-16T06:34:03;13.40;99.90
3866;DHT22;1948;53.250;10.412;2022-10-16T06:36:33;13.40;99.90
3866;DHT22;1948;53.250;10.412;2022-10-16T06:39:00;13.40;99.90
3866;DHT22;1948;53.250;10.412;2022-10-16T06:41:30;13.40;99.90
3866;DHT22;1948;53.250;10.412;2022-10-16T06:44:09;13.50;99.90
3866;DHT22;1948;53.250;10.412;2022-10-16T06:46:36;13.60;99.90
3866;DHT22;1948;53.250;10.412;2022-10-16T06:49:03;13.50;99.90
3866;DHT22;1948;53.250;10.412;2022-10-16T06:51:33;13.60;99.90
3866;DHT22;1948;53.250;10.412;2022-10-16T06:54:14;13.50;99.90
3866;DHT22;1948;53.250;10.412;2022-10-16T06:56:41;13.60;99.90
3866;DHT22;1948;53.250;10.412;2022-10-16T06:59:09;13.70;99.90
3866;DHT22;1948;53.250;10.412;2022-10-16T07:01:36;13.70;99.90
3866;DHT22;1948;53.250;10.412;2022-10-16T07:04:04;13.80;99.90
3866;DHT22;1948;53.250;10.412;2022-10-16T07:06:39;13.80;99.90
3866;DHT22;1948;53.250;10.412;2022-10-16T07:09:11;13.70;99.90
3866;DHT22;1948;53.250;10.412;2022-10-16T07:11:40;13.70;99.90
3866;DHT22;1948;53.250;10.412;2022-10-16T07:14:17;13.70;99.90
3866;DHT22;1948;53.250;10.412;2022-10-16T07:16:48;13.70;99.90
3866;DHT22;1948;53.250;10.412;2022-10-16T07:19:21;14.00;99.90
3866;DHT22;1948;53.250;10.412;2022-10-16T07:21:59;14.90;99.90
3866;DHT22;1948;53.250;10.412;2022-10-16T07:24:30;15.30;99.90
3866;DHT22;1948;53.250;10.412;2022-10-16T07:27:00;15.80;99.90
3866;DHT22;1948;53.250;10.412;2022-10-16T07:29:35;16.70;99.90
3866;DHT22;1948;53.250;10.412;2022-10-16T07:32:05;17.30;99.90
3866;DHT22;1948;53.250;10.412;2022-10-16T07:34:38;17.20;99.90
3866;DHT22;1948;53.250;10.412;2022-10-16T07:37:06;17.40;99.90
3866;DHT22;1948;53.250;10.412;2022-10-16T07:39:33;17.50;99.90
3866;DHT22;1948;53.250;10.412;2022-10-16T07:42:00;17.60;99.90
3866;DHT22;1948;53.250;10.412;2022-10-16T07:44:32;17.90;99.90
3866;DHT22;1948;53.250;10.412;2022-10-16T07:46:59;18.50;99.90
3866;DHT22;1948;53.250;10.412;2022-10-16T07:49:31;18.90;99.90
3866;DHT22;1948;53.250;10.412;2022-10-16T07:52:01;20.40;99.90
3866;DHT22;1948;53.250;10.412;2022-10-16T07:54:30;21.30;99.90
3866;DHT22;1948;53.250;10.412;2022-10-16T07:56:57;21.90;99.90
3866;DHT22;1948;53.250;10.412;2022-10-16T07:59:37;22.90;99.90
3866;DHT22;1948;53.250;10.412;2022-10-16T08:02:08;23.20;99.90
3866;DHT22;1948;53.250;10.412;2022-10-16T08:04:35;23.30;99.90
3866;DHT22;1948;53.250;10.412;2022-10-16T08:07:09;23.60;99.90
3866;DHT22;1948;53.250;10.412;2022-10-16T08:09:39;23.70;99.90
3866;DHT22;1948;53.250;10.412;2022-10-16T08:12:09;24.00;99.90
3866;DHT22;1948;53.250;10.412;2022-10-16T08:14:46;23.80;99.90
3866;DHT22;1948;53.250;10.412;2022-10-16T08:17:16;23.80;99.90
3866;DHT22;1948;53.250;10.412;2022-10-16T08:19:49;24.80;99.90
3866;DHT22;1948;53.250;10.412;2022-10-16T08:22:20;24.10;99.90
3866;DHT22;1948;53.250;10.412;2022-10-16T08:24:50;22.80;99.90
3866;DHT22;1948;53.250;10.412;2022-10-16T08:27:17;22.00;99.90
3866;DHT22;1948;53.250;10.412;2022-10-16T08:29:44;21.00;99.90
3866;DHT22;1948;53.250;10.412;2022-10-16T08:32:20;20.40;99.90
3866;DHT22;1948;53.250;10.412;2022-10-16T08:34:53;20.60;99.90
3866;DHT22;1948;53.250;10.412;2022-10-16T08:37:20;21.00;99.90
3866;DHT22;1948;53.250;10.412;2022-10-16T08:39:56;21.60;99.90
3866;DHT22;1948;53.250;10.412;2022-10-16T08:45:21;24.10;99.90
3866;DHT22;1948;53.250;10.412;2022-10-16T08:48:21;23.80;99.90
3866;DHT22;1948;53.250;10.412;2022-10-16T08:50:53;23.80;99.90
3866;DHT22;1948;53.250;10.412;2022-10-16T08:53:27;23.40;99.90
3866;DHT22;1948;53.250;10.412;2022-10-16T08:56:00;23.20;99.90
3866;DHT22;1948;53.250;10.412;2022-10-16T08:58:34;23.00;99.90
3866;DHT22;1948;53.250;10.412;2022-10-16T09:01:11;23.10;99.90
3866;DHT22;1948;53.250;10.412;2022-10-16T09:16:48;27.40;99.90
3866;DHT22;1948;53.250;10.412;2022-10-16T09:19:24;27.40;99.90
3866;DHT22;1948;53.250;10.412;2022-10-16T09:22:14;27.10;99.90
3866;DHT22;1948;53.250;10.412;2022-10-16T09:24:45;27.30;99.90
3866;DHT22;1948;53.250;10.412;2022-10-16T09:27:16;26.90;99.90
3866;DHT22;1948;53.250;10.412;2022-10-16T09:29:46;28.00;99.90
3866;DHT22;1948;53.250;10.412;2022-10-16T09:32:19;28.00;99.90
3866;DHT22;1948;53.250;10.412;2022-10-16T09:34:53;28.30;99.90
3866;DHT22;1948;53.250;10.412;2022-10-16T09:37:31;27.90;99.90
3866;DHT22;1948;53.250;10.412;2022-10-16T09:40:04;27.50;99.90
3866;DHT22;1948;53.250;10.412;2022-10-16T09:42:35;28.40;99.90
3866;DHT22;1948;53.250;10.412;2022-10-16T09:45:04;28.90;99.90
3866;DHT22;1948;53.250;10.412;2022-10-16T09:47:32;30.60;99.90
3866;DHT22;1948;53.250;10.412;2022-10-16T09:50:24;30.40;99.90
3866;DHT22;1948;53.250;10.412;2022-10-16T09:53:13;30.20;99.90
3866;DHT22;1948;53.250;10.412;2022-10-16T09:55:51;29.60;99.90
3866;DHT22;1948;53.250;10.412;2022-10-16T09:58:22;28.50;99.90
3866;DHT22;1948;53.250;10.412;2022-10-16T10:00:54;28.50;99.90
3866;DHT22;1948;53.250;10.412;2022-10-16T10:03:37;28.90;99.90
3866;DHT22;1948;53.250;10.412;2022-10-16T10:06:21;29.50;99.90
3866;DHT22;1948;53.250;10.412;2022-10-16T10:09:00;29.80;99.90
3866;DHT22;1948;53.250;10.412;2022-10-16T10:16:52;32.40;99.80
3866;DHT22;1948;53.250;10.412;2022-10-16T10:19:29;32.60;98.20
3866;DHT22;1948;53.250;10.412;2022-10-16T10:22:28;32.00;97.50
3866;DHT22;1948;53.250;10.412;2022-10-16T10:25:38;31.20;98.00
3866;DHT22;1948;53.250;10.412;2022-10-16T10:31:18;32.30;97.00
3866;DHT22;1948;53.250;10.412;2022-10-16T10:37:04;32.20;95.80
3866;DHT22;1948;53.250;10.412;2022-10-16T10:40:16;31.60;95.70
3866;DHT22;1948;53.250;10.412;2022-10-16T10:56:07;29.80;95.20
3866;DHT22;1948;53.250;10.412;2022-10-16T10:59:18;30.80;94.80
3866;DHT22;1948;53.250;10.412;2022-10-16T11:07:21;29.20;93.90
3866;DHT22;1948;53.250;10.412;2022-10-16T11:12:49;31.10;94.80
3866;DHT22;1948;53.250;10.412;2022-10-16T11:15:32;32.80;93.10
3866;DHT22;1948;53.250;10.412;2022-10-16T11:18:23;33.60;92.10
3866;DHT22;1948;53.250;10.412;2022-10-16T11:21:14;34.30;91.30
3866;DHT22;1948;53.250;10.412;2022-10-16T11:26:35;31.50;91.10
3866;DHT22;1948;53.250;10.412;2022-10-16T11:29:13;29.80;92.40
3866;DHT22;1948;53.250;10.412;2022-10-16T11:31:52;29.60;93.80
3866;DHT22;1948;53.250;10.412;2022-10-16T11:34:43;29.20;93.70
3866;DHT22;1948;53.250;10.412;2022-10-16T11:37:19;27.70;95.80
3866;DHT22;1948;53.250;10.412;2022-10-16T11:39:53;28.00;96.00
3866;DHT22;1948;53.250;10.412;2022-10-16T11:42:41;27.70;96.00
3866;DHT22;1948;53.250;10.412;2022-10-16T11:48:18;30.10;95.10
3866;DHT22;1948;53.250;10.412;2022-10-16T11:50:59;29.90;94.50
3866;DHT22;1948;53.250;10.412;2022-10-16T11:56:32;28.70;95.80
3866;DHT22;1948;53.250;10.412;2022-10-16T11:59:13;29.20;95.50
3866;DHT22;1948;53.250;10.412;2022-10-16T12:01:57;29.10;95.90
3866;DHT22;1948;53.250;10.412;2022-10-16T12:07:52;31.70;93.60
3866;DHT22;1948;53.250;10.412;2022-10-16T12:10:27;30.50;93.60
3866;DHT22;1948;53.250;10.412;2022-10-16T12:13:00;30.10;94.30
3866;DHT22;1948;53.250;10.412;2022-10-16T12:15:34;29.20;95.00
3866;DHT22;1948;53.250;10.412;2022-10-16T12:18:23;29.40;95.40
3866;DHT22;1948;53.250;10.412;2022-10-16T12:20:57;28.00;95.70
3866;DHT22;1948;53.250;10.412;2022-10-16T12:23:37;29.30;95.80
3866;DHT22;1948;53.250;10.412;2022-10-16T12:26:05;30.50;95.20
3866;DHT22;1948;53.250;10.412;2022-10-16T12:28:33;31.10;93.90
3866;DHT22;1948;53.250;10.412;2022-10-16T12:31:06;30.10;94.00
3866;DHT22;1948;53.250;10.412;2022-10-16T12:33:39;31.00;94.30
3866;DHT22;1948;53.250;10.412;2022-10-16T12:36:32;30.80;93.20
3866;DHT22;1948;53.250;10.412;2022-10-16T12:39:02;30.00;94.30
3866;DHT22;1948;53.250;10.412;2022-10-16T12:41:34;29.70;94.50
3866;DHT22;1948;53.250;10.412;2022-10-16T12:44:27;27.40;95.80
3866;DHT22;1948;53.250;10.412;2022-10-16T12:46:59;25.70;98.10
3866;DHT22;1948;53.250;10.412;2022-10-16T12:49:34;26.10;99.90
3866;DHT22;1948;53.250;10.412;2022-10-16T12:52:28;27.30;99.10
3866;DHT22;1948;53.250;10.412;2022-10-16T12:55:01;28.40;97.90
3866;DHT22;1948;53.250;10.412;2022-10-16T12:57:44;29.80;96.10
3866;DHT22;1948;53.250;10.412;2022-10-16T13:08:40;31.50;92.90
3866;DHT22;1948;53.250;10.412;2022-10-16T13:11:48;31.50;93.20
3866;DHT22;1948;53.250;10.412;2022-10-16T13:14:55;32.10;92.50
3866;DHT22;1948;53.250;10.412;2022-10-16T13:26:54;28.00;96.30
3866;DHT22;1948;53.250;10.412;2022-10-16T13:29:33;28.80;94.90
3866;DHT22;1948;53.250;10.412;2022-10-16T13:32:09;30.20;93.70
3866;DHT22;1948;53.250;10.412;2022-10-16T13:34:46;30.90;93.10
3866;DHT22;1948;53.250;10.412;2022-10-16T13:37:21;31.50;91.90
3866;DHT22;1948;53.250;10.412;2022-10-16T13:40:06;30.10;91.90
3866;DHT22;1948;53.250;10.412;2022-10-16T13:42:43;28.00;93.40
3866;DHT22;1948;53.250;10.412;2022-10-16T13:45:19;27.20;94.90
3866;DHT22;1948;53.250;10.412;2022-10-16T13:47:47;25.90;96.40
3866;DHT22;1948;53.250;10.412;2022-10-16T13:50:20;25.60;97.70
3866;DHT22;1948;53.250;10.412;2022-10-16T13:52:52;26.40;97.20
3866;DHT22;1948;53.250;10.412;2022-10-16T13:55:33;28.00;95.40
3866;DHT22;1948;53.250;10.412;2022-10-16T13:58:13;28.80;94.20
3866;DHT22;1948;53.250;10.412;2022-10-16T14:00:56;29.90;93.40
3866;DHT22;1948;53.250;10.412;2022-10-16T14:03:28;30.40;92.00
3866;DHT22;1948;53.250;10.412;2022-10-16T14:06:00;30.60;91.40
3866;DHT22;1948;53.250;10.412;2022-10-16T14:08:31;30.20;91.40
3866;DHT22;1948;53.250;10.412;2022-10-16T14:11:01;30.10;91.30
3866;DHT22;1948;53.250;10.412;2022-10-16T14:13:44;29.30;91.60
3866;DHT22;1948;53.250;10.412;2022-10-16T14:16:19;28.90;91.80
3866;DHT22;1948;53.250;10.412;2022-10-16T14:21:26;28.30;92.80
3866;DHT22;1948;53.250;10.412;2022-10-16T14:23:59;28.50;92.80
3866;DHT22;1948;53.250;10.412;2022-10-16T14:26:41;28.30;92.50
3866;DHT22;1948;53.250;10.412;2022-10-16T14:29:19;28.10;93.20
3866;DHT22;1948;53.250;10.412;2022-10-16T14:34:38;28.70;92.50
3866;DHT22;1948;53.250;10.412;2022-10-16T14:37:31;28.60;92.20
3866;DHT22;1948;53.250;10.412;2022-10-16T14:39:59;27.70;93.20
3866;DHT22;1948;53.250;10.412;2022-10-16T14:42:28;27.90;93.30
3866;DHT22;1948;53.250;10.412;2022-10-16T14:44:57;28.00;93.60
3866;DHT22;1948;53.250;10.412;2022-10-16T14:47:25;28.30;93.40
3866;DHT22;1948;53.250;10.412;2022-10-16T14:49:56;29.00;93.10
3866;DHT22;1948;53.250;10.412;2022-10-16T14:52:25;29.20;92.60
3866;DHT22;1948;53.250;10.412;2022-10-16T14:54:52;28.60;92.90
3866;DHT22;1948;53.250;10.412;2022-10-16T14:57:27;28.20;93.00
3866;DHT22;1948;53.250;10.412;2022-10-16T15:00:02;28.20;93.10
3866;DHT22;1948;53.250;10.412;2022-10-16T15:02:36;28.00;92.70
3866;DHT22;1948;53.250;10.412;2022-10-16T15:07:51;27.30;93.40
3866;DHT22;1948;53.250;10.412;2022-10-16T15:10:23;26.80;93.70
3866;DHT22;1948;53.250;10.412;2022-10-16T15:12:52;27.10;94.00
3866;DHT22;1948;53.250;10.412;2022-10-16T15:15:34;26.40;93.50
3866;DHT22;1948;53.250;10.412;2022-10-16T15:18:07;25.80;94.00
3866;DHT22;1948;53.250;10.412;2022-10-16T15:20:35;25.30;94.70
3866;DHT22;1948;53.250;10.412;2022-10-16T15:23:16;25.30;95.00
3866;DHT22;1948;53.250;10.412;2022-10-16T15:25:46;24.40;95.40
3866;DHT22;1948;53.250;10.412;2022-10-16T15:28:24;23.50;97.10
3866;DHT22;1948;53.250;10.412;2022-10-16T15:30:56;22.80;98.90
3866;DHT22;1948;53.250;10.412;2022-10-16T15:33:25;22.40;99.90
3866;DHT22;1948;53.250;10.412;2022-10-16T15:36:05;22.00;99.90
3866;DHT22;1948;53.250;10.412;2022-10-16T15:38:32;21.70;99.90
3866;DHT22;1948;53.250;10.412;2022-10-16T15:41:04;21.40;99.90
3866;DHT22;1948;53.250;10.412;2022-10-16T15:43:33;21.20;99.90
3866;DHT22;1948;53.250;10.412;2022-10-16T15:46:04;21.00;99.90
3866;DHT22;1948;53.250;10.412;2022-10-16T15:48:33;20.80;99.90
3866;DHT22;1948;53.250;10.412;2022-10-16T15:51:00;20.70;99.90
3866;DHT22;1948;53.250;10.412;2022-10-16T15:53:31;20.60;99.90
3866;DHT22;1948;53.250;10.412;2022-10-16T15:56:10;20.40;99.90
3866;DHT22;1948;53.250;10.412;2022-10-16T15:58:37;20.30;99.90
3866;DHT22;1948;53.250;10.412;2022-10-16T16:01:05;20.20;99.90
3866;DHT22;1948;53.250;10.412;2022-10-16T16:03:32;20.00;99.90
3866;DHT22;1948;53.250;10.412;2022-10-16T16:06:04;19.80;99.90
3866;DHT22;1948;53.250;10.412;2022-10-16T16:08:33;19.70;99.90
3866;DHT22;1948;53.250;10.412;2022-10-16T16:11:14;19.70;99.90
3866;DHT22;1948;53.250;10.412;2022-10-16T16:13:42;19.70;99.90
3866;DHT22;1948;53.250;10.412;2022-10-16T16:16:12;19.70;99.90
3866;DHT22;1948;53.250;10.412;2022-10-16T16:18:42;19.60;99.90
3866;DHT22;1948;53.250;10.412;2022-10-16T16:21:10;19.40;99.90
3866;DHT22;1948;53.250;10.412;2022-10-16T16:23:38;19.40;99.90
3866;DHT22;1948;53.250;10.412;2022-10-16T16:26:09;19.20;99.90
3866;DHT22;1948;53.250;10.412;2022-10-16T16:28:42;19.10;99.90
3866;DHT22;1948;53.250;10.412;2022-10-16T16:31:10;19.00;99.90
3866;DHT22;1948;53.250;10.412;2022-10-16T16:33:39;18.90;99.90
3866;DHT22;1948;53.250;10.412;2022-10-16T16:36:06;18.80;99.90
3866;DHT22;1948;53.250;10.412;2022-10-16T16:38:40;18.70;99.90
3866;DHT22;1948;53.250;10.412;2022-10-16T16:41:14;18.60;99.90
3866;DHT22;1948;53.250;10.412;2022-10-16T16:43:42;18.50;99.90
3866;DHT22;1948;53.250;10.412;2022-10-16T16:46:12;18.50;99.90
3866;DHT22;1948;53.250;10.412;2022-10-16T16:48:39;18.40;99.90
3866;DHT22;1948;53.250;10.412;2022-10-16T16:51:15;18.30;99.90
3866;DHT22;1948;53.250;10.412;2022-10-16T16:53:48;18.30;99.90
3866;DHT22;1948;53.250;10.412;2022-10-16T16:56:21;18.30;99.90
3866;DHT22;1948;53.250;10.412;2022-10-16T16:58:53;18.20;99.90
3866;DHT22;1948;53.250;10.412;2022-10-16T17:01:26;18.10;99.90
3866;DHT22;1948;53.250;10.412;2022-10-16T17:03:59;18.10;99.90
3866;DHT22;1948;53.250;10.412;2022-10-16T17:06:28;18.00;99.90
3866;DHT22;1948;53.250;10.412;2022-10-16T17:09:01;18.00;99.90
3866;DHT22;1948;53.250;10.412;2022-10-16T17:11:29;17.90;99.90
3866;DHT22;1948;53.250;10.412;2022-10-16T17:13:57;17.80;99.90
3866;DHT22;1948;53.250;10.412;2022-10-16T17:16:32;17.70;99.90
3866;DHT22;1948;53.250;10.412;2022-10-16T17:19:02;17.60;99.90
3866;DHT22;1948;53.250;10.412;2022-10-16T17:21:31;17.60;99.90
3866;DHT22;1948;53.250;10.412;2022-10-16T17:24:01;17.50;99.90
3866;DHT22;1948;53.250;10.412;2022-10-16T17:26:29;17.30;99.90
3866;DHT22;1948;53.250;10.412;2022-10-16T17:28:58;17.10;99.90
3866;DHT22;1948;53.250;10.412;2022-10-16T17:31:32;17.00;99.90
3866;DHT22;1948;53.250;10.412;2022-10-16T17:34:02;17.00;99.90
3866;DHT22;1948;53.250;10.412;2022-10-16T17:36:36;16.90;99.90
3866;DHT22;1948;53.250;10.412;2022-10-16T17:39:05;16.80;99.90
3866;DHT22;1948;53.250;10.412;2022-10-16T17:41:35;16.60;99.90
3866;DHT22;1948;53.250;10.412;2022-10-16T17:44:22;16.50;99.90
3866;DHT22;1948;53.250;10.412;2022-10-16T17:46:52;16.50;99.90
3866;DHT22;1948;53.250;10.412;2022-10-16T17:49:22;16.40;99.90
3866;DHT22;1948;53.250;10.412;2022-10-16T17:51:52;16.40;99.90
3866;DHT22;1948;53.250;10.412;2022-10-16T17:54:19;16.30;99.90
3866;DHT22;1948;53.250;10.412;2022-10-16T17:56:46;16.20;99.90
3866;DHT22;1948;53.250;10.412;2022-10-16T17:59:14;16.20;99.90
3866;DHT22;1948;53.250;10.412;2022-10-16T18:01:43;16.20;99.90
3866;DHT22;1948;53.250;10.412;2022-10-16T18:04:14;16.20;99.90
3866;DHT22;1948;53.250;10.412;2022-10-16T18:06:45;16.20;99.90